CheckWX is a tool to help pilots better visualize weather data.  It is not intended as a substitute for an official pre-flight weather briefing.

01:10:24 UTC

D07 METAR
Faith Municipal Airport
Faith, South Dakota, USA
Current

14 mins ago

KD07 240056Z AUTO 16007KT 04/03 A2999 RMK AO1 SLP180 T00390033
Observed
Mar-24 @ 00:56 UTC
Wind
  • 160° at 7 KTS
Visibility
Temperature
C / 39°F
Dewpoint
C / 37°F
Humidity
93%
Altimeter
29.99" Hg
Pressure
1018 hPa
Previous

1 hour ago

KD07 232356Z AUTO 14009KT 07/04 A2998 RMK AO1 SLP173 T00720044 10100 20061 52006
Observed
Mar-23 @ 23:56 UTC
Wind
  • 140° at 9 KTS
Visibility
Temperature
C / 45°F
Dewpoint
C / 39°F
Humidity
81%
Altimeter
29.98" Hg
Pressure
1017.3 hPa
Previous

2 hours ago

KD07 232256Z AUTO 15008KT 08/04 A2998 RMK AO1 SLP172 T00780044
Observed
Mar-23 @ 22:56 UTC
Wind
  • 150° at 8 KTS
Visibility
Temperature
C / 46°F
Dewpoint
C / 39°F
Humidity
76%
Altimeter
29.98" Hg
Pressure
1017.2 hPa